Time;durP1;ratioP1;P1;durP2;ratioP2;P2;SDS_P1;SDS_P2;PMS_P1;PMS_P2;Temp;Humidity;BMP_temperature;BMP_pressure;BME280_temperature;BME280_humidity;BME280_pressure;Samples;Min_cycle;Max_cycle;Signal;HPM_P1;HPM_P2
2021/12/16 00:05:39;;;;;;;25.50;9.90;;;;;;;;;;4975046;28;20066;-75
2021/12/16 00:08:16;;;;;;;32.83;10.40;;;;;;;;;;4973728;28;20113;-77
2021/12/16 00:10:52;;;;;;;25.13;11.77;;;;;;;;;;4973344;28;20046;-76
2021/12/16 00:32:29;;;;;;;26.93;11.67;;;;;;;;;;4974674;28;20038;-78
2021/12/16 00:34:55;;;;;;;24.77;11.30;;;;;;;;;;4973030;28;20034;-74
2021/12/16 00:37:21;;;;;;;29.43;12.33;;;;;;;;;;4973068;28;20030;-75
2021/12/16 00:39:47;;;;;;;26.20;11.00;;;;;;;;;;4973908;28;20109;-78
2021/12/16 00:42:29;;;;;;;31.83;12.37;;;;;;;;;;4974669;28;20030;-76
2021/12/16 00:46:09;;;;;;;24.97;11.90;;;;;;;;;;4972865;28;20038;-76
2021/12/16 00:48:02;;;;;;;25.93;11.37;;;;;;;;;;4977832;28;20049;-77
2021/12/16 00:55:50;;;;;;;26.70;11.63;;;;;;;;;;4974391;28;20037;-76
2021/12/16 00:58:19;;;;;;;25.57;11.57;;;;;;;;;;4974291;28;20071;-77
2021/12/16 01:00:55;;;;;;;26.43;12.07;;;;;;;;;;4974227;28;20077;-76
2021/12/16 01:03:34;;;;;;;32.87;13.27;;;;;;;;;;4971645;28;20176;-75
2021/12/16 01:09:09;;;;;;;26.67;13.17;;;;;;;;;;4974063;28;20093;-76
2021/12/16 01:37:10;;;;;;;25.30;12.07;;;;;;;;;;4973363;28;20114;-75
2021/12/16 01:42:13;;;;;;;28.27;12.17;;;;;;;;;;4973722;28;20034;-75
2021/12/16 01:57:40;;;;;;;26.80;10.87;;;;;;;;;;4972733;28;20096;-75
2021/12/16 02:00:24;;;;;;;34.87;13.30;;;;;;;;;;4971294;28;20035;-75
2021/12/16 02:02:51;;;;;;;27.80;12.10;;;;;;;;;;4972447;28;20074;-75
2021/12/16 02:08:18;;;;;;;27.43;11.43;;;;;;;;;;4973072;28;20089;-76
2021/12/16 02:10:55;;;;;;;23.27;10.40;;;;;;;;;;4971197;28;20126;-75
2021/12/16 02:37:23;;;;;;;26.07;11.73;;;;;;;;;;4973706;28;20434;-74
2021/12/16 02:39:49;;;;;;;24.20;12.20;;;;;;;;;;4970559;28;20051;-75
2021/12/16 02:42:21;;;;;;;25.97;11.10;;;;;;;;;;4970815;28;20038;-74
2021/12/16 02:50:20;;;;;;;49.87;12.37;;;;;;;;;;4972078;28;20130;-76
2021/12/16 02:52:46;;;;;;;26.47;11.47;;;;;;;;;;4971638;28;20027;-75
2021/12/16 02:55:14;;;;;;;26.10;9.50;;;;;;;;;;4970330;28;20029;-76
2021/12/16 02:58:22;;;;;;;22.97;9.70;;;;;;;;;;4970152;28;20396;-75
2021/12/16 03:00:38;;;;;;;19.10;9.57;;;;;;;;;;4973759;28;20113;-75
2021/12/16 03:03:04;;;;;;;26.30;10.20;;;;;;;;;;4970098;28;20085;-75
2021/12/16 03:05:30;;;;;;;19.10;9.60;;;;;;;;;;4971380;28;20030;-75
2021/12/16 03:07:56;;;;;;;24.10;9.73;;;;;;;;;;4971363;28;20030;-74
2021/12/16 03:15:56;;;;;;;28.25;10.80;;;;;;;;;;4971745;28;20073;-74
2021/12/16 03:21:19;;;;;;;24.13;10.33;;;;;;;;;;4972234;28;20056;-75
2021/12/16 03:24:28;;;;;;;20.17;9.00;;;;;;;;;;4975535;28;20077;-76
2021/12/16 03:35:31;;;;;;;22.77;8.90;;;;;;;;;;4980824;28;20497;-77
2021/12/16 03:38:01;;;;;;;21.20;8.73;;;;;;;;;;4969415;28;20038;-75
2021/12/16 03:40:27;;;;;;;21.33;9.27;;;;;;;;;;4970070;28;20038;-75
2021/12/16 03:42:58;;;;;;;21.73;9.97;;;;;;;;;;4969755;28;20035;-74
2021/12/16 03:48:46;;;;;;;17.35;8.15;;;;;;;;;;4971027;28;20046;-76
2021/12/16 03:51:44;;;;;;;21.13;9.03;;;;;;;;;;4969767;28;20027;-76
2021/12/16 03:54:19;;;;;;;22.73;10.03;;;;;;;;;;4969290;28;20035;-76
2021/12/16 03:56:45;;;;;;;28.23;9.17;;;;;;;;;;4969589;28;20491;-75
2021/12/16 03:59:15;;;;;;;18.10;8.63;;;;;;;;;;4971104;28;20035;-75
2021/12/16 04:01:41;;;;;;;18.87;8.53;;;;;;;;;;4970831;28;20058;-76
2021/12/16 04:04:07;;;;;;;19.20;8.93;;;;;;;;;;4970723;28;20062;-76
2021/12/16 04:06:35;;;;;;;20.53;9.07;;;;;;;;;;4969414;28;20567;-75
2021/12/16 04:09:05;;;;;;;19.43;8.30;;;;;;;;;;4969572;28;20019;-75
2021/12/16 04:11:42;;;;;;;18.77;8.83;;;;;;;;;;4969473;28;20049;-76
2021/12/16 04:14:14;;;;;;;23.17;10.30;;;;;;;;;;4969190;28;20372;-75
2021/12/16 04:16:45;;;;;;;31.47;7.83;;;;;;;;;;4969148;28;20390;-76
2021/12/16 04:19:17;;;;;;;15.97;8.10;;;;;;;;;;4969672;28;20451;-77
2021/12/16 04:21:48;;;;;;;17.50;8.37;;;;;;;;;;4969462;28;20062;-75
2021/12/16 04:24:13;;;;;;;18.30;8.73;;;;;;;;;;4970859;28;20110;-76
2021/12/16 04:26:42;;;;;;;16.23;8.67;;;;;;;;;;4970627;28;20125;-75
2021/12/16 04:29:09;;;;;;;21.13;8.97;;;;;;;;;;4969214;28;20065;-75
2021/12/16 04:31:37;;;;;;;23.67;7.67;;;;;;;;;;4970495;28;20522;-76
2021/12/16 04:34:03;;;;;;;15.47;7.60;;;;;;;;;;4969241;28;20045;-76
2021/12/16 04:36:29;;;;;;;20.43;8.47;;;;;;;;;;4971705;28;20123;-76
2021/12/16 04:38:56;;;;;;;18.30;8.87;;;;;;;;;;4974098;28;20043;-75
2021/12/16 04:41:22;;;;;;;14.60;7.40;;;;;;;;;;4974371;28;20034;-76
2021/12/16 04:43:50;;;;;;;16.27;7.60;;;;;;;;;;4974183;28;20077;-74
2021/12/16 04:46:20;;;;;;;17.17;7.40;;;;;;;;;;4974829;28;20483;-76
2021/12/16 04:48:48;;;;;;;21.93;8.77;;;;;;;;;;4976659;28;20031;-75
2021/12/16 04:51:15;;;;;;;15.80;8.67;;;;;;;;;;4976945;28;20027;-75
2021/12/16 04:53:41;;;;;;;20.53;9.03;;;;;;;;;;4972666;28;20031;-76
2021/12/16 04:56:09;;;;;;;18.70;8.97;;;;;;;;;;4972778;28;20026;-76
2021/12/16 04:58:38;;;;;;;21.07;8.33;;;;;;;;;;4974167;28;20139;-75
2021/12/16 05:01:04;;;;;;;15.57;7.20;;;;;;;;;;4973820;28;20023;-75
2021/12/16 05:03:32;;;;;;;25.80;8.40;;;;;;;;;;4973969;28;20082;-74
2021/12/16 05:05:58;;;;;;;19.87;8.17;;;;;;;;;;4973598;28;20022;-76
2021/12/16 05:08:24;;;;;;;15.93;8.10;;;;;;;;;;4972372;28;20030;-76
2021/12/16 05:10:53;;;;;;;16.80;8.30;;;;;;;;;;4973446;28;20034;-75
2021/12/16 05:13:23;;;;;;;18.50;8.57;;;;;;;;;;4972083;28;20451;-75
2021/12/16 05:15:50;;;;;;;17.27;7.83;;;;;;;;;;4971880;28;20022;-76
2021/12/16 05:18:21;;;;;;;20.53;8.23;;;;;;;;;;4973676;28;20018;-75
2021/12/16 05:20:47;;;;;;;18.83;7.97;;;;;;;;;;4972243;28;20031;-75
2021/12/16 05:28:43;;;;;;;15.67;7.83;;;;;;;;;;4973719;28;20117;-75
2021/12/16 05:31:10;;;;;;;25.70;8.77;;;;;;;;;;4973325;28;20037;-75
2021/12/16 05:33:36;;;;;;;20.50;8.07;;;;;;;;;;4971796;28;20034;-74
2021/12/16 05:36:02;;;;;;;19.83;8.80;;;;;;;;;;4973182;28;20036;-76
2021/12/16 05:38:29;;;;;;;20.87;8.10;;;;;;;;;;4972998;28;20039;-75
2021/12/16 05:40:56;;;;;;;14.83;6.87;;;;;;;;;;4971767;28;20033;-75
2021/12/16 05:43:24;;;;;;;24.43;9.10;;;;;;;;;;4971386;28;20582;-75
2021/12/16 05:45:52;;;;;;;23.03;8.50;;;;;;;;;;4972519;28;20114;-77
2021/12/16 05:48:21;;;;;;;20.17;9.23;;;;;;;;;;4987345;28;20059;-76
2021/12/16 05:50:51;;;;;;;22.20;9.10;;;;;;;;;;4971335;28;20459;-76
2021/12/16 05:53:18;;;;;;;20.43;7.83;;;;;;;;;;4971780;28;20454;-75
2021/12/16 05:55:44;;;;;;;17.43;8.60;;;;;;;;;;4971942;28;20499;-75
2021/12/16 05:58:15;;;;;;;16.43;8.37;;;;;;;;;;4971398;28;20031;-76
2021/12/16 06:00:42;;;;;;;19.07;8.60;;;;;;;;;;4972745;28;20564;-75
2021/12/16 06:03:09;;;;;;;19.23;8.23;;;;;;;;;;4971269;28;20050;-78
2021/12/16 06:05:35;;;;;;;19.13;8.70;;;;;;;;;;4971572;28;20031;-75
2021/12/16 06:08:01;;;;;;;17.67;8.03;;;;;;;;;;4971213;28;20487;-77
2021/12/16 06:13:11;;;;;;;19.83;8.87;;;;;;;;;;4972498;28;20082;-73
2021/12/16 06:29:29;;;;;;;60.20;11.60;;;;;;;;;;4975696;28;20069;-76
2021/12/16 06:31:55;;;;;;;31.80;10.13;;;;;;;;;;4971857;28;20451;-76
2021/12/16 06:34:22;;;;;;;25.20;11.57;;;;;;;;;;4970562;28;20058;-76
2021/12/16 06:36:48;;;;;;;29.90;12.10;;;;;;;;;;4972250;28;20071;-75
2021/12/16 06:39:14;;;;;;;57.10;17.47;;;;;;;;;;4971559;28;20055;-77
2021/12/16 06:41:39;;;;;;;21.63;9.20;;;;;;;;;;4971620;28;20038;-76
2021/12/16 06:44:15;;;;;;;23.43;11.10;;;;;;;;;;4970387;28;20026;-76
2021/12/16 06:46:43;;;;;;;16.47;8.67;;;;;;;;;;4971627;28;20026;-76
2021/12/16 06:49:12;;;;;;;17.60;9.00;;;;;;;;;;4971651;28;20033;-76
2021/12/16 06:52:00;;;;;;;23.87;9.27;;;;;;;;;;4970316;28;20450;-75
2021/12/16 06:54:34;;;;;;;36.43;11.30;;;;;;;;;;4970286;28;20450;-75
2021/12/16 06:59:40;;;;;;;33.37;10.10;;;;;;;;;;4971396;28;20045;-75
2021/12/16 07:02:16;;;;;;;29.57;9.80;;;;;;;;;;4970235;28;20031;-77
2021/12/16 07:04:43;;;;;;;26.57;9.83;;;;;;;;;;4971654;28;20039;-76
2021/12/16 07:07:12;;;;;;;42.40;13.07;;;;;;;;;;4970097;28;20065;-77
2021/12/16 07:09:38;;;;;;;30.30;9.60;;;;;;;;;;4970022;28;20038;-76
2021/12/16 07:12:06;;;;;;;26.57;9.97;;;;;;;;;;4971552;28;20472;-74
2021/12/16 07:14:38;;;;;;;24.07;9.60;;;;;;;;;;4953718;28;20038;-76
2021/12/16 07:17:16;;;;;;;30.03;9.97;;;;;;;;;;4969584;28;20046;-75
2021/12/16 07:19:44;;;;;;;27.53;10.17;;;;;;;;;;4972438;28;20022;-75
2021/12/16 07:22:11;;;;;;;32.33;10.93;;;;;;;;;;4969942;28;20526;-76
2021/12/16 07:24:37;;;;;;;21.43;9.17;;;;;;;;;;4970837;28;20039;-75
2021/12/16 07:27:05;;;;;;;38.33;11.30;;;;;;;;;;4965764;28;20133;-71
2021/12/16 07:29:30;;;;;;;26.90;10.53;;;;;;;;;;4949502;28;20046;-74
2021/12/16 07:31:59;;;;;;;46.10;11.77;;;;;;;;;;4955334;28;20041;-77
2021/12/16 07:34:25;;;;;;;23.27;9.80;;;;;;;;;;4950650;28;20149;-75
2021/12/16 07:36:51;;;;;;;22.97;9.43;;;;;;;;;;4958576;28;20046;-77
2021/12/16 07:39:19;;;;;;;142.20;20.23;;;;;;;;;;4957257;28;20051;-74
2021/12/16 07:41:51;;;;;;;258.13;27.10;;;;;;;;;;4956443;28;20038;-77
2021/12/16 07:44:17;;;;;;;26.80;9.90;;;;;;;;;;4958170;28;20042;-78
2021/12/16 07:46:47;;;;;;;24.13;9.77;;;;;;;;;;4958393;28;21138;-75
2021/12/16 07:49:17;;;;;;;24.33;9.30;;;;;;;;;;4955816;28;20034;-76
2021/12/16 07:51:45;;;;;;;19.60;8.73;;;;;;;;;;4956699;28;20117;-76
2021/12/16 07:54:11;;;;;;;21.23;8.73;;;;;;;;;;4956044;28;20066;-74
2021/12/16 07:56:38;;;;;;;18.83;7.87;;;;;;;;;;4957386;28;20035;-76
2021/12/16 07:59:05;;;;;;;26.23;9.77;;;;;;;;;;4950029;28;20097;-76
2021/12/16 08:01:32;;;;;;;20.47;9.00;;;;;;;;;;4945580;28;20043;-77
2021/12/16 08:03:58;;;;;;;33.10;9.97;;;;;;;;;;4951672;28;20053;-78
2021/12/16 08:06:28;;;;;;;16.93;9.63;;;;;;;;;;4954736;28;20034;-76
2021/12/16 08:08:58;;;;;;;27.97;11.13;;;;;;;;;;4957060;28;20126;-75
2021/12/16 08:11:29;;;;;;;22.80;10.17;;;;;;;;;;4956331;28;20691;-76
2021/12/16 08:13:55;;;;;;;25.85;11.38;;;;;;;;;;4959530;28;20066;-76
2021/12/16 08:16:22;;;;;;;25.00;10.73;;;;;;;;;;4960681;28;20054;-74
2021/12/16 08:18:51;;;;;;;28.07;10.73;;;;;;;;;;4959592;28;20028;-73
2021/12/16 08:21:18;;;;;;;27.83;12.13;;;;;;;;;;4957073;28;20022;-74
2021/12/16 08:23:44;;;;;;;30.20;11.87;;;;;;;;;;4962841;28;20027;-78
2021/12/16 08:26:10;;;;;;;28.90;10.77;;;;;;;;;;4963813;28;20035;-71
2021/12/16 08:28:36;;;;;;;35.87;11.53;;;;;;;;;;4959368;28;20042;-78
2021/12/16 08:31:06;;;;;;;57.47;12.30;;;;;;;;;;4980302;28;20161;-77
2021/12/16 08:33:33;;;;;;;25.50;10.77;;;;;;;;;;4949112;28;20477;-78
2021/12/16 08:35:58;;;;;;;29.07;12.70;;;;;;;;;;4963678;28;20023;-76
2021/12/16 08:38:25;;;;;;;24.97;11.53;;;;;;;;;;4965043;28;20043;-76
2021/12/16 08:40:54;;;;;;;36.60;12.73;;;;;;;;;;4964286;28;20065;-77
2021/12/16 08:43:21;;;;;;;26.40;11.53;;;;;;;;;;4963832;28;20062;-75
2021/12/16 08:45:47;;;;;;;27.73;12.17;;;;;;;;;;4960213;28;20076;-77
2021/12/16 08:48:13;;;;;;;25.90;12.47;;;;;;;;;;4959371;28;20084;-73
2021/12/16 08:50:44;;;;;;;27.77;11.97;;;;;;;;;;4956083;28;20034;-77
2021/12/16 08:53:11;;;;;;;27.63;11.90;;;;;;;;;;4958685;28;20106;-74
2021/12/16 08:55:38;;;;;;;25.47;12.07;;;;;;;;;;4960242;28;20077;-73
2021/12/16 08:58:05;;;;;;;33.63;12.13;;;;;;;;;;4964678;28;20035;-76
2021/12/16 09:00:38;;;;;;;30.03;12.47;;;;;;;;;;4950938;28;20035;-73
2021/12/16 09:03:04;;;;;;;25.90;11.80;;;;;;;;;;4962079;28;20129;-78
2021/12/16 09:05:30;;;;;;;22.23;10.60;;;;;;;;;;4957843;28;20618;-77
2021/12/16 09:07:56;;;;;;;27.23;11.53;;;;;;;;;;4955165;28;20042;-74
2021/12/16 09:10:27;;;;;;;33.53;11.53;;;;;;;;;;4960475;28;20110;-78
2021/12/16 09:13:02;;;;;;;27.40;11.70;;;;;;;;;;4958286;28;20537;-75
2021/12/16 09:15:34;;;;;;;25.13;11.50;;;;;;;;;;4957482;28;20027;-75
2021/12/16 09:18:02;;;;;;;25.67;12.03;;;;;;;;;;4961756;28;20035;-76
2021/12/16 09:20:29;;;;;;;26.27;11.50;;;;;;;;;;4956856;28;20125;-75
2021/12/16 09:22:55;;;;;;;31.60;12.50;;;;;;;;;;4940124;28;20134;-79
2021/12/16 09:25:22;;;;;;;25.93;11.43;;;;;;;;;;4962872;28;20121;-77
2021/12/16 09:27:49;;;;;;;25.67;11.50;;;;;;;;;;4958175;28;20101;-77
2021/12/16 09:30:21;;;;;;;27.97;11.77;;;;;;;;;;4964725;28;20095;-77
2021/12/16 09:32:52;;;;;;;28.85;12.20;;;;;;;;;;4960926;28;20116;-74
2021/12/16 09:35:19;;;;;;;25.37;11.63;;;;;;;;;;4965374;28;20604;-78
2021/12/16 09:37:47;;;;;;;28.13;12.10;;;;;;;;;;4964788;28;20046;-75
2021/12/16 09:40:21;;;;;;;29.87;12.03;;;;;;;;;;4961077;28;20109;-76
2021/12/16 09:42:47;;;;;;;28.90;13.47;;;;;;;;;;4962458;28;20027;-74
2021/12/16 09:45:13;;;;;;;27.50;11.93;;;;;;;;;;4961063;28;20042;-75
2021/12/16 09:47:43;;;;;;;27.93;12.67;;;;;;;;;;4958893;28;20026;-77
2021/12/16 09:50:11;;;;;;;28.57;12.80;;;;;;;;;;4956911;28;20471;-76
2021/12/16 09:52:37;;;;;;;29.13;11.97;;;;;;;;;;4956868;28;20791;-75
2021/12/16 09:55:04;;;;;;;31.90;11.97;;;;;;;;;;4954822;28;20115;-74
2021/12/16 09:57:31;;;;;;;33.97;12.80;;;;;;;;;;4952474;28;20038;-78
2021/12/16 09:59:57;;;;;;;32.77;13.63;;;;;;;;;;4956074;28;20051;-77
2021/12/16 10:02:23;;;;;;;33.20;13.07;;;;;;;;;;4948583;28;20031;-77
2021/12/16 10:04:49;;;;;;;28.37;12.13;;;;;;;;;;4953675;28;20506;-77
2021/12/16 10:07:22;;;;;;;31.63;12.73;;;;;;;;;;4955647;28;20053;-77
2021/12/16 10:09:49;;;;;;;24.27;12.07;;;;;;;;;;4958103;28;20403;-74
2021/12/16 10:12:19;;;;;;;25.47;11.30;;;;;;;;;;4956436;28;20117;-76
2021/12/16 10:17:36;;;;;;;31.07;12.53;;;;;;;;;;4959402;28;20043;-76
2021/12/16 10:20:14;;;;;;;31.87;12.77;;;;;;;;;;4955174;28;20038;-76
2021/12/16 10:22:42;;;;;;;28.53;12.87;;;;;;;;;;4955304;28;20027;-78
2021/12/16 10:25:42;;;;;;;31.53;13.20;;;;;;;;;;4958066;28;20075;-78
2021/12/16 10:28:12;;;;;;;27.40;12.10;;;;;;;;;;4968956;28;20345;-74
2021/12/16 10:30:44;;;;;;;28.73;12.40;;;;;;;;;;4950227;28;20515;-73
2021/12/16 10:33:19;;;;;;;29.77;12.40;;;;;;;;;;4951684;28;20035;-75
2021/12/16 10:35:47;;;;;;;29.03;11.83;;;;;;;;;;4957312;28;20142;-75
2021/12/16 10:38:19;;;;;;;35.90;15.80;;;;;;;;;;4958476;28;20396;-76
2021/12/16 10:40:49;;;;;;;27.10;11.93;;;;;;;;;;4951736;28;20547;-74
2021/12/16 10:43:43;;;;;;;32.57;12.13;;;;;;;;;;4954749;28;20035;-78
2021/12/16 10:46:10;;;;;;;30.87;11.70;;;;;;;;;;4956367;28;20122;-76
2021/12/16 10:48:41;;;;;;;31.27;13.87;;;;;;;;;;4953002;28;20041;-77
2021/12/16 10:51:19;;;;;;;28.10;11.00;;;;;;;;;;4957209;28;20464;-76
2021/12/16 10:54:04;;;;;;;31.47;12.37;;;;;;;;;;4969874;28;20118;-79
2021/12/16 10:57:02;;;;;;;38.23;12.43;;;;;;;;;;4969556;28;20035;-78
2021/12/16 10:59:47;;;;;;;29.77;11.47;;;;;;;;;;4967702;28;20601;-76
2021/12/16 11:02:19;;;;;;;28.27;12.20;;;;;;;;;;4953289;28;20463;-77
2021/12/16 11:04:50;;;;;;;29.73;11.70;;;;;;;;;;4968631;28;20627;-76
2021/12/16 11:07:22;;;;;;;28.27;11.88;;;;;;;;;;4972139;28;20058;-78
2021/12/16 11:09:52;;;;;;;29.55;12.32;;;;;;;;;;4952340;28;20118;-76
2021/12/16 11:12:36;;;;;;;27.27;11.67;;;;;;;;;;4953228;28;20030;-76
2021/12/16 11:15:05;;;;;;;30.13;11.30;;;;;;;;;;4951866;28;20031;-75
2021/12/16 11:17:59;;;;;;;32.13;13.77;;;;;;;;;;4956414;28;20057;-76
2021/12/16 11:20:44;;;;;;;27.70;12.77;;;;;;;;;;4949084;28;20050;-77
2021/12/16 11:23:37;;;;;;;27.07;11.83;;;;;;;;;;4955647;28;20035;-75
2021/12/16 11:26:11;;;;;;;23.27;10.23;;;;;;;;;;4951690;28;20031;-74
2021/12/16 11:28:49;;;;;;;22.60;10.27;;;;;;;;;;4950836;28;20042;-79
2021/12/16 11:31:23;;;;;;;23.97;10.40;;;;;;;;;;4953342;28;20042;-74
2021/12/16 11:33:52;;;;;;;24.97;10.30;;;;;;;;;;4954745;28;20031;-76
2021/12/16 11:36:29;;;;;;;26.10;12.03;;;;;;;;;;4953715;28;20435;-75
2021/12/16 11:39:05;;;;;;;30.90;11.67;;;;;;;;;;4950004;28;20067;-76
2021/12/16 11:41:40;;;;;;;25.17;12.30;;;;;;;;;;4957277;28;20038;-77
2021/12/16 11:44:20;;;;;;;35.73;13.63;;;;;;;;;;4953877;28;20038;-77
2021/12/16 11:47:08;;;;;;;27.53;11.43;;;;;;;;;;4956188;28;20172;-74
2021/12/16 11:49:44;;;;;;;27.90;10.73;;;;;;;;;;4956525;28;20030;-75
2021/12/16 11:52:20;;;;;;;36.23;15.13;;;;;;;;;;4953870;28;20039;-73
2021/12/16 11:54:55;;;;;;;35.43;13.93;;;;;;;;;;4950252;28;20090;-74
2021/12/16 11:57:28;;;;;;;33.63;13.47;;;;;;;;;;4951242;28;20023;-74
2021/12/16 12:00:08;;;;;;;36.73;13.10;;;;;;;;;;4959701;28;20109;-75
2021/12/16 12:02:35;;;;;;;30.43;12.30;;;;;;;;;;4951842;28;20145;-75
2021/12/16 12:05:22;;;;;;;35.67;16.20;;;;;;;;;;4958510;28;20042;-74
2021/12/16 12:07:55;;;;;;;32.20;12.47;;;;;;;;;;4966115;28;20166;-75
2021/12/16 12:10:59;;;;;;;33.17;14.00;;;;;;;;;;4959556;28;20355;-75
2021/12/16 12:13:34;;;;;;;32.70;12.63;;;;;;;;;;4967895;28;20023;-74
2021/12/16 12:16:02;;;;;;;31.93;13.37;;;;;;;;;;4954976;28;20027;-76
2021/12/16 12:18:40;;;;;;;33.03;12.57;;;;;;;;;;4961350;28;20055;-76
2021/12/16 12:21:33;;;;;;;35.13;12.93;;;;;;;;;;4967828;28;20802;-74
2021/12/16 12:24:11;;;;;;;30.23;12.27;;;;;;;;;;4963904;28;20050;-75
2021/12/16 12:26:58;;;;;;;29.93;12.20;;;;;;;;;;4976228;28;20034;-73
2021/12/16 12:29:40;;;;;;;26.40;11.40;;;;;;;;;;4960502;28;20047;-75
2021/12/16 12:32:16;;;;;;;27.73;12.13;;;;;;;;;;4959159;28;20030;-73
2021/12/16 12:34:45;;;;;;;27.10;12.77;;;;;;;;;;4963383;28;20026;-73
2021/12/16 12:37:19;;;;;;;36.03;12.77;;;;;;;;;;4975477;28;20509;-74
2021/12/16 12:40:22;;;;;;;23.73;11.00;;;;;;;;;;4965958;28;20070;-74
2021/12/16 12:42:51;;;;;;;31.53;12.67;;;;;;;;;;4947751;28;20039;-74
2021/12/16 12:45:21;;;;;;;27.60;11.57;;;;;;;;;;4970181;28;20129;-73
2021/12/16 12:47:51;;;;;;;26.70;11.27;;;;;;;;;;4951859;28;20031;-74
2021/12/16 12:50:23;;;;;;;29.63;12.80;;;;;;;;;;4952373;28;20038;-73
2021/12/16 12:52:53;;;;;;;34.40;12.47;;;;;;;;;;4956457;28;20093;-75
2021/12/16 12:55:29;;;;;;;33.63;12.20;;;;;;;;;;4949849;28;20469;-74
2021/12/16 12:58:10;;;;;;;32.47;12.53;;;;;;;;;;4951372;28;20028;-74
2021/12/16 13:00:47;;;;;;;31.67;11.37;;;;;;;;;;4953634;28;20106;-76
2021/12/16 13:03:39;;;;;;;32.90;13.57;;;;;;;;;;4950886;28;20504;-75
2021/12/16 13:06:08;;;;;;;29.50;13.77;;;;;;;;;;4970302;28;20066;-74
2021/12/16 13:08:53;;;;;;;32.73;12.53;;;;;;;;;;4956006;28;20042;-76
2021/12/16 13:11:26;;;;;;;32.43;12.93;;;;;;;;;;4951316;28;20034;-75
2021/12/16 13:14:30;;;;;;;31.33;13.13;;;;;;;;;;4953070;28;20213;-75
2021/12/16 13:28:19;;;;;;;23.63;10.13;;;;;;;;;;4959974;28;20069;-73
2021/12/16 13:31:18;;;;;;;26.80;11.17;;;;;;;;;;4958058;28;20026;-72
2021/12/16 13:33:54;;;;;;;24.00;9.95;;;;;;;;;;4958023;28;20143;-74
2021/12/16 13:36:41;;;;;;;25.03;10.63;;;;;;;;;;4956678;28;20023;-74
2021/12/16 13:39:29;;;;;;;23.63;10.30;;;;;;;;;;4950422;28;20047;-73
2021/12/16 13:42:12;;;;;;;26.97;10.20;;;;;;;;;;4945128;28;20035;-74
2021/12/16 13:45:06;;;;;;;30.37;11.00;;;;;;;;;;4954780;28;20613;-74
2021/12/16 13:47:59;;;;;;;24.37;11.10;;;;;;;;;;4954135;28;20039;-74
2021/12/16 14:01:02;;;;;;;18.63;8.80;;;;;;;;;;4958322;28;20109;-74
2021/12/16 14:03:04;;;;;;;20.70;8.53;;;;;;;;;;4951593;28;20035;-74
2021/12/16 14:05:40;;;;;;;20.57;8.00;;;;;;;;;;4953472;28;20039;-74
2021/12/16 14:08:08;;;;;;;17.50;8.73;;;;;;;;;;4956991;28;20119;-74
2021/12/16 14:10:49;;;;;;;20.63;8.60;;;;;;;;;;4953549;28;20094;-74
2021/12/16 14:14:10;;;;;;;19.50;7.10;;;;;;;;;;4950072;28;20707;-74
2021/12/16 14:16:55;;;;;;;17.33;8.20;;;;;;;;;;4952488;28;20063;-73
2021/12/16 14:42:15;;;;;;;18.27;7.87;;;;;;;;;;4964738;28;20030;-74
2021/12/16 14:50:36;;;;;;;15.00;7.40;;;;;;;;;;4987831;28;20038;-74
2021/12/16 14:53:18;;;;;;;15.27;7.33;;;;;;;;;;4975351;28;20168;-73
2021/12/16 14:55:45;;;;;;;12.63;6.53;;;;;;;;;;4968687;28;20031;-76
2021/12/16 14:58:11;;;;;;;21.50;7.73;;;;;;;;;;4964277;28;20045;-74
2021/12/16 15:00:47;;;;;;;15.27;6.50;;;;;;;;;;4967182;28;20660;-75
2021/12/16 15:03:26;;;;;;;14.97;6.77;;;;;;;;;;4968854;28;20039;-75
2021/12/16 15:05:58;;;;;;;11.67;6.00;;;;;;;;;;4959517;28;20127;-74
2021/12/16 15:08:33;;;;;;;;;;;;;;;;;;4958820;28;20130;-74
2021/12/16 15:11:02;;;;;;;14.43;6.03;;;;;;;;;;4962176;28;20004;-74
2021/12/16 15:13:45;;;;;;;20.80;7.53;;;;;;;;;;4964676;28;20042;-74
2021/12/16 15:16:42;;;;;;;13.40;6.03;;;;;;;;;;4956162;28;20023;-74
2021/12/16 15:39:09;;;;;;;8.37;4.23;;;;;;;;;;4970367;28;20062;-72
2021/12/16 15:44:15;;;;;;;10.03;5.30;;;;;;;;;;4959303;28;20033;-73
2021/12/16 15:46:41;;;;;;;7.07;4.13;;;;;;;;;;4966810;28;20030;-76
2021/12/16 15:49:08;;;;;;;10.37;4.80;;;;;;;;;;4951566;28;20081;-74
2021/12/16 15:51:34;;;;;;;8.37;4.20;;;;;;;;;;4965876;28;20459;-74
2021/12/16 15:54:01;;;;;;;5.83;4.10;;;;;;;;;;4961010;28;20494;-74
2021/12/16 15:56:33;;;;;;;7.90;4.23;;;;;;;;;;4965044;28;20268;-75
2021/12/16 15:59:09;;;;;;;12.23;4.57;;;;;;;;;;4963520;28;20857;-73
2021/12/16 16:01:41;;;;;;;6.30;3.83;;;;;;;;;;4960782;28;20566;-74
2021/12/16 16:04:10;;;;;;;;;;;;;;;;;;4964540;28;20022;-75
2021/12/16 16:06:40;;;;;;;8.03;4.77;;;;;;;;;;4965681;28;19928;-74
2021/12/16 16:09:10;;;;;;;8.80;5.13;;;;;;;;;;4966400;28;20044;-72
2021/12/16 16:11:46;;;;;;;12.93;5.70;;;;;;;;;;4964501;28;20038;-73
2021/12/16 16:14:14;;;;;;;16.87;8.20;;;;;;;;;;4966340;28;20034;-74
2021/12/16 16:16:48;;;;;;;10.80;5.33;;;;;;;;;;4980232;28;20093;-75
2021/12/16 16:19:21;;;;;;;12.13;5.67;;;;;;;;;;4966034;28;20459;-74
2021/12/16 16:21:49;;;;;;;9.00;4.67;;;;;;;;;;4966726;28;20064;-74
2021/12/16 16:24:24;;;;;;;10.17;4.67;;;;;;;;;;4966282;28;20031;-74
2021/12/16 16:26:53;;;;;;;15.37;5.60;;;;;;;;;;4959330;28;20093;-74
2021/12/16 16:29:21;;;;;;;13.00;5.07;;;;;;;;;;4956943;28;20423;-74
2021/12/16 16:31:48;;;;;;;15.03;6.07;;;;;;;;;;4959624;28;20034;-75
2021/12/16 16:34:20;;;;;;;11.83;5.67;;;;;;;;;;4969447;28;20038;-75
2021/12/16 16:36:50;;;;;;;9.20;5.43;;;;;;;;;;4972402;28;20038;-75
2021/12/16 16:39:20;;;;;;;11.33;4.50;;;;;;;;;;4965240;28;20050;-74
2021/12/16 16:41:54;;;;;;;9.83;4.80;;;;;;;;;;4951323;28;20096;-75
2021/12/16 16:44:22;;;;;;;13.33;4.63;;;;;;;;;;4966713;28;20027;-75
2021/12/16 16:46:58;;;;;;;8.37;4.87;;;;;;;;;;4972709;28;20129;-73
2021/12/16 16:49:41;;;;;;;11.70;5.47;;;;;;;;;;4972159;28;20041;-76
2021/12/16 16:52:10;;;;;;;8.43;4.07;;;;;;;;;;4966040;28;20235;-74
2021/12/16 16:55:08;;;;;;;11.20;4.60;;;;;;;;;;4970324;28;20034;-75
2021/12/16 16:57:37;;;;;;;11.60;5.50;;;;;;;;;;4978020;28;20035;-73
2021/12/16 17:00:19;;;;;;;10.27;4.87;;;;;;;;;;4968576;28;20129;-74
2021/12/16 17:02:47;;;;;;;;;;;;;;;;;;4970424;28;20106;-73
2021/12/16 17:05:23;;;;;;;11.13;4.50;;;;;;;;;;4969482;28;20405;-72
2021/12/16 17:07:51;;;;;;;8.47;4.27;;;;;;;;;;4955103;28;20050;-74
2021/12/16 17:10:21;;;;;;;9.30;4.90;;;;;;;;;;4967873;28;20019;-74
2021/12/16 17:12:47;;;;;;;10.00;4.20;;;;;;;;;;4953067;28;20369;-73
2021/12/16 17:15:31;;;;;;;10.20;4.73;;;;;;;;;;4971073;28;20034;-73
2021/12/16 17:17:57;;;;;;;9.80;4.73;;;;;;;;;;4971904;28;20027;-74
2021/12/16 17:20:23;;;;;;;7.17;4.10;;;;;;;;;;4971461;28;20035;-73
2021/12/16 17:22:52;;;;;;;150.53;50.70;;;;;;;;;;4971967;28;20070;-71
2021/12/16 17:25:21;;;;;;;17.23;6.30;;;;;;;;;;4972578;28;20031;-73
2021/12/16 17:27:56;;;;;;;10.17;5.07;;;;;;;;;;4971614;28;20121;-74
2021/12/16 17:30:32;;;;;;;10.80;5.60;;;;;;;;;;4972079;28;20415;-75
2021/12/16 17:33:01;;;;;;;11.77;4.83;;;;;;;;;;4970981;28;20026;-76
2021/12/16 17:35:39;;;;;;;10.93;5.10;;;;;;;;;;4955002;28;20027;-75
2021/12/16 17:38:07;;;;;;;11.13;4.67;;;;;;;;;;4987113;28;20051;-73
2021/12/16 17:40:40;;;;;;;9.77;5.07;;;;;;;;;;4972538;28;20041;-74
2021/12/16 17:43:15;;;;;;;10.23;5.47;;;;;;;;;;4972062;28;20026;-72
2021/12/16 17:46:08;;;;;;;12.80;5.63;;;;;;;;;;4970756;28;20129;-73
2021/12/16 17:48:38;;;;;;;12.83;5.50;;;;;;;;;;4972468;28;20034;-72
2021/12/16 17:51:12;;;;;;;11.03;5.63;;;;;;;;;;4970885;28;20032;-75
2021/12/16 17:53:51;;;;;;;15.47;8.70;;;;;;;;;;4971455;28;20027;-73
2021/12/16 17:56:18;;;;;;;18.20;6.53;;;;;;;;;;4971559;28;20025;-73
2021/12/16 17:58:49;;;;;;;17.03;6.37;;;;;;;;;;4970838;28;20066;-71
2021/12/16 18:01:25;;;;;;;16.90;8.03;;;;;;;;;;4970663;28;20270;-74
2021/12/16 18:04:01;;;;;;;17.33;7.33;;;;;;;;;;4970800;28;20398;-74
2021/12/16 18:06:56;;;;;;;14.17;6.13;;;;;;;;;;4971738;28;20030;-73
2021/12/16 18:09:49;;;;;;;12.53;4.80;;;;;;;;;;4969271;28;20039;-74
2021/12/16 18:12:21;;;;;;;12.43;4.97;;;;;;;;;;4970472;28;20150;-74
2021/12/16 18:15:03;;;;;;;14.17;5.30;;;;;;;;;;4971942;28;20077;-72
2021/12/16 18:17:34;;;;;;;9.50;4.70;;;;;;;;;;4971915;28;20046;-75
2021/12/16 18:20:10;;;;;;;13.10;5.55;;;;;;;;;;4954681;28;20512;-74
2021/12/16 18:22:41;;;;;;;12.67;4.93;;;;;;;;;;4971082;28;20038;-74
2021/12/16 18:25:35;;;;;;;14.63;5.07;;;;;;;;;;4970476;28;20070;-74
2021/12/16 18:28:12;;;;;;;18.97;5.50;;;;;;;;;;4970633;28;20431;-75
2021/12/16 18:30:58;;;;;;;12.53;6.30;;;;;;;;;;4970572;28;20022;-73
2021/12/16 18:33:30;;;;;;;12.37;4.40;;;;;;;;;;4969652;28;20038;-71
2021/12/16 18:35:59;;;;;;;10.83;4.50;;;;;;;;;;4969623;28;20117;-74
2021/12/16 18:38:32;;;;;;;7.87;3.77;;;;;;;;;;4969695;28;20109;-73
2021/12/16 18:41:04;;;;;;;9.67;3.63;;;;;;;;;;4970855;28;20037;-73
2021/12/16 18:43:29;;;;;;;6.40;3.53;;;;;;;;;;4970361;28;20550;-73